Mount Princeton, Colorado
Current Conditions -  °F | °C
As of 11:14 PM on Wednesday 22 Oct 2014 (Local Time) from K7BM Reporting Station
Clear Clear  
Wind Chill:   Ceiling: Unl
Heat Index:   Visibility: 10mi
Dew Point: -2°   Wind: 3mph
Humidity: 57%   Direction: 350°N
Pressure: 30.37"   Gusts: NA
Location:  38.7194°N, 106.276°W
Report Text: K7BM 230514Z AUTO 35003KT 10SM CLR 06/M02 A3037 RMK AO2
Loading
Personal Weather Stations






























Interactive Weather Map
Tropical Storm Tracking
New forecast layout! Learn more

10-Day Weather Forecast

Advertisements
Track Severe Weather on mobile